Portada
METAR-TAF:

METAR-TAF

Aeropuertos :

Tarbes Lourdes, Francia

Aeropuerto de Tarbes-Lourdes-Pirineos

latitud: 43-11N, longitud: 000-00W, altitud: 379 m

Observación

El informe se hizo hace 39 minutos, a las 19:00 UTC
Viento calma
Temperatura 1°C
Humedad 80%
Presión 1012 hPa
Visibilidad 10 km o más
sin nubes por debajo de 1500 m y sin presencia de cumulonimbus.

METAR: LFBT 031900Z AUTO 00000KT CAVOK 01/M02 Q1012 NOSIG

Hora: 20:39 (19:39 UTC)

Pronóstico

El informe se hizo hace 2 horas y 39 minutos, a las 17:00 UTC
Pronóstico válido del 03 a las 18 UTC al 04 a las 18 UTC
Viento 2 kt con dirección variable
Visibilidad 10 km o más
sin nubes por debajo de 1500 m y sin presencia de cumulonimbus.
Temporalmente
del 04 a las 03 UTC al 04 a las 09 UTC
Viento 5 kt del sur

TAF: LFBT 031700Z 0318/0418 VRB02KT CAVOK TEMPO 0403/0409 18005KT

Observaciones y pronósticos meteorológicos de más de 4000 aeropuertos (mensajes METAR y TAF).

Los puntos amarillos y rojos representan las estaciones disponibles.

Ponga el ratón en el punto deseado para ver el nombre de la estación.

Haga clic para ver las observaciones y los pronósticos meteorológicos.

Para cambiar el mapa : haga clic en los botones verdes con una cruz de color negro para hacer un zoom, en el botón verde con un guión para alejar o en las flechas verdes para mapas adyacentes.


METAR-TAF: